createdAt,value
2023-05-17T00:01:02.411Z,97920.59
2023-05-17T00:03:32.421Z,97919.56
2023-05-17T00:06:01.080Z,97926.81
2023-05-17T00:08:29.457Z,97932.19
2023-05-17T00:11:00.774Z,97927.81
2023-05-17T00:13:29.206Z,97932.19
2023-05-17T00:15:57.611Z,97924.94
2023-05-17T00:18:26.424Z,97928.66
2023-05-17T00:20:56.444Z,97921.41
2023-05-17T00:23:26.073Z,97925.97
2023-05-17T00:25:54.484Z,97913.53
2023-05-17T00:28:22.892Z,97920.59
2023-05-17T00:30:51.351Z,97926.81
2023-05-17T00:33:20.022Z,97926.81
2023-05-17T00:35:49.778Z,97927.81
2023-05-17T00:38:19.645Z,97924.13
2023-05-17T00:40:48.051Z,97926.97
2023-05-17T00:43:16.615Z,97926.97
2023-05-17T00:45:44.981Z,97934.22
2023-05-17T00:48:13.662Z,97924.94
2023-05-17T00:50:42.585Z,97919.72
2023-05-17T00:53:11.384Z,97926.97
2023-05-17T00:55:41.289Z,97919.72
2023-05-17T00:58:09.705Z,97917.91
2023-05-17T01:00:38.411Z,97905.44
2023-05-17T01:03:07.003Z,97915.22
2023-05-17T01:05:35.540Z,97925.97
2023-05-17T01:08:04.094Z,97924.28
2023-05-17T01:10:38.129Z,97925.97
2023-05-17T01:13:11.937Z,97913.53
2023-05-17T01:15:44.359Z,97901.94
2023-05-17T01:18:19.345Z,97894.69
2023-05-17T01:20:48.820Z,97902.75
2023-05-17T01:23:36.877Z,97894.91
2023-05-17T01:26:09.199Z,97907.31
2023-05-17T01:28:40.089Z,97915.38
2023-05-17T01:31:08.948Z,97918.91
2023-05-17T01:33:37.631Z,97916.44
2023-05-17T01:36:07.353Z,97917.25
2023-05-17T01:38:35.995Z,97923.47
2023-05-17T01:41:14.220Z,97924.28
2023-05-17T01:43:49.297Z,97918.91
2023-05-17T01:46:23.287Z,97916.44
2023-05-17T01:48:56.474Z,97906.50
2023-05-17T01:51:25.190Z,97910.19
2023-05-17T01:53:58.406Z,97918.09
2023-05-17T01:56:30.047Z,97918.09
2023-05-17T01:59:00.092Z,97917.25
2023-05-17T02:01:28.788Z,97921.81
2023-05-17T02:03:57.189Z,97927.19
2023-05-17T02:06:25.937Z,97941.47
2023-05-17T02:08:54.748Z,97941.47
2023-05-17T02:11:23.305Z,97950.38
2023-05-17T02:13:51.716Z,97949.56
2023-05-17T02:16:21.593Z,97957.81
2023-05-17T02:18:50.412Z,97952.25
2023-05-17T02:21:19.391Z,97948.72
2023-05-17T02:23:47.859Z,97944.19
2023-05-17T02:26:16.240Z,97934.41
2023-05-17T02:28:44.762Z,97940.66
2023-05-17T02:31:13.391Z,97938.78
2023-05-17T02:33:43.195Z,97933.41
2023-05-17T02:36:11.880Z,97937.09
2023-05-17T02:38:40.611Z,97929.88
2023-05-17T02:41:09.273Z,97936.28
2023-05-17T02:43:38.154Z,97939.78
2023-05-17T02:46:06.942Z,97942.50
2023-05-17T02:48:35.842Z,97946.03
2023-05-17T02:51:05.843Z,97954.94
2023-05-17T02:53:34.576Z,97947.03
2023-05-17T02:56:03.769Z,97948.72
2023-05-17T02:58:32.200Z,97947.03
2023-05-17T03:01:00.788Z,97953.25
2023-05-17T03:03:29.270Z,97950.78
2023-05-17T03:06:02.872Z,97940.84
2023-05-17T03:08:32.620Z,97931.09
2023-05-17T03:11:01.223Z,97934.63
2023-05-17T03:13:29.758Z,97944.56
2023-05-17T03:15:58.727Z,97948.72
2023-05-17T03:18:27.267Z,97958.63
2023-05-17T03:20:55.645Z,97958.63
2023-05-17T03:23:24.186Z,97956.16
2023-05-17T03:25:53.917Z,97963.19
2023-05-17T03:28:22.611Z,97965.88
2023-05-17T03:30:51.149Z,97967.75
2023-05-17T03:33:20.233Z,97973.97
2023-05-17T03:35:51.207Z,97977.69
2023-05-17T03:38:19.841Z,97968.78
2023-05-17T03:40:48.720Z,97984.72
2023-05-17T03:43:18.550Z,97976.66
2023-05-17T03:45:46.916Z,97977.69
2023-05-17T03:48:15.558Z,97976.00
2023-05-17T03:50:43.955Z,97977.69
2023-05-17T03:53:12.710Z,97984.94
2023-05-17T03:55:41.171Z,97976.88
2023-05-17T03:58:09.620Z,97982.25
2023-05-17T04:00:39.587Z,97993.00
2023-05-17T04:03:08.207Z,97998.41
2023-05-17T04:05:37.014Z,97999.22
2023-05-17T04:08:05.932Z,98002.91
2023-05-17T04:10:34.368Z,97994.84
2023-05-17T04:13:02.863Z,97991.31
2023-05-17T04:15:31.332Z,98003.97
2023-05-17T04:18:01.366Z,98016.38
2023-05-17T04:20:29.971Z,98020.94
2023-05-17T04:22:59.076Z,98023.63
2023-05-17T04:25:27.841Z,98022.78
2023-05-17T04:27:56.394Z,98022.78
2023-05-17T04:30:25.290Z,98014.53
2023-05-17T04:32:54.048Z,98017.41
2023-05-17T04:35:24.030Z,98024.66
2023-05-17T04:37:52.933Z,98018.44
2023-05-17T04:40:21.647Z,98027.34
2023-05-17T04:42:50.233Z,98020.28
2023-05-17T04:45:19.050Z,98030.03
2023-05-17T04:47:48.064Z,98017.41
2023-05-17T04:50:16.594Z,98017.41
2023-05-17T04:52:47.705Z,98020.75
2023-05-17T04:55:16.224Z,98028.00
2023-05-17T04:57:44.779Z,98031.69
2023-05-17T05:00:15.794Z,98045.16
2023-05-17T05:02:44.247Z,98038.13
2023-05-17T05:05:13.186Z,98050.38
2023-05-17T05:07:41.805Z,98045.16
2023-05-17T05:10:12.121Z,98045.16
2023-05-17T05:12:40.955Z,98052.84
2023-05-17T05:15:11.122Z,98056.00
2023-05-17T05:17:39.664Z,98046.06
2023-05-17T05:20:12.059Z,98058.50
2023-05-17T05:22:40.505Z,98053.31
2023-05-17T05:25:12.026Z,98054.81
2023-05-17T05:27:40.463Z,98056.00
2023-05-17T05:30:10.801Z,98066.56
2023-05-17T05:32:39.959Z,98075.47
2023-05-17T05:35:09.539Z,98076.34
2023-05-17T05:37:38.174Z,98084.81
2023-05-17T05:40:08.960Z,98086.78
2023-05-17T05:42:39.038Z,98090.25
2023-05-17T05:45:09.475Z,98093.03
2023-05-17T05:47:37.972Z,98090.53
2023-05-17T05:50:08.719Z,98099.00
2023-05-17T05:52:37.195Z,98107.06
2023-05-17T05:55:06.655Z,98110.97
2023-05-17T05:57:36.010Z,98114.31
2023-05-17T06:00:07.619Z,98110.59
2023-05-17T06:02:36.474Z,98117.66
2023-05-17T06:05:05.390Z,98127.78
2023-05-17T06:07:34.045Z,98117.19
2023-05-17T06:10:02.537Z,98119.69
2023-05-17T06:12:31.334Z,98123.41
2023-05-17T06:14:59.781Z,98111.44
2023-05-17T06:17:29.720Z,98120.72
2023-05-17T06:19:58.319Z,98113.94
2023-05-17T06:22:26.839Z,98126.72
2023-05-17T06:24:55.428Z,98134.19
2023-05-17T06:27:23.896Z,98125.47
2023-05-17T06:29:52.691Z,98131.66
2023-05-17T06:32:21.457Z,98136.22
2023-05-17T06:34:51.778Z,98129.19
2023-05-17T06:37:20.167Z,98134.56
2023-05-17T06:39:55.419Z,98146.34
2023-05-17T06:42:24.515Z,98145.34
2023-05-17T06:44:52.940Z,98152.53
2023-05-17T06:47:21.697Z,98159.63
2023-05-17T06:49:51.758Z,98163.13
2023-05-17T06:52:20.232Z,98164.34
2023-05-17T06:54:48.775Z,98159.78
2023-05-17T06:57:17.274Z,98170.56
2023-05-17T06:59:45.970Z,98169.72
2023-05-17T07:02:16.067Z,98176.97
2023-05-17T07:04:44.484Z,98177.81
2023-05-17T07:07:14.642Z,98177.97
2023-05-17T07:09:43.125Z,98184.22
2023-05-17T07:12:11.761Z,98177.97
2023-05-17T07:14:40.237Z,98189.59
2023-05-17T07:17:08.631Z,98189.59
2023-05-17T07:19:37.300Z,98195.00
2023-05-17T07:22:06.567Z,98202.19
2023-05-17T07:24:36.668Z,98205.75
2023-05-17T07:27:05.574Z,98197.69
2023-05-17T07:29:34.021Z,98214.84
2023-05-17T07:32:02.748Z,98220.22
2023-05-17T07:34:32.371Z,98226.44
2023-05-17T07:37:00.900Z,98235.53
2023-05-17T07:39:29.617Z,98233.66
2023-05-17T07:41:59.419Z,98232.84
2023-05-17T07:44:28.027Z,98222.06
2023-05-17T07:46:56.410Z,98240.09
2023-05-17T07:49:25.796Z,98241.75
2023-05-17T07:51:55.579Z,98251.50
2023-05-17T07:54:24.818Z,98255.19
2023-05-17T07:56:55.477Z,98255.19
2023-05-17T07:59:25.299Z,98263.28
2023-05-17T08:01:53.902Z,98264.97
2023-05-17T08:04:24.322Z,98263.28
2023-05-17T08:06:52.855Z,98269.50
2023-05-17T08:09:21.840Z,98278.59
2023-05-17T08:11:50.281Z,98277.75
2023-05-17T08:14:19.058Z,98278.59
2023-05-17T08:16:48.836Z,98284.81
2023-05-17T08:19:20.448Z,98290.19
2023-05-17T08:21:50.212Z,98291.22
2023-05-17T08:24:19.213Z,98291.22
2023-05-17T08:26:47.908Z,98283.16
2023-05-17T08:29:16.555Z,98291.22
2023-05-17T08:31:45.655Z,98290.38
2023-05-17T08:34:15.716Z,98279.78
2023-05-17T08:36:44.686Z,98281.47
2023-05-17T08:39:13.879Z,98282.31
2023-05-17T08:41:42.617Z,98294.75
2023-05-17T08:44:11.787Z,98299.28
2023-05-17T08:46:40.256Z,98293.91
2023-05-17T08:49:08.654Z,98298.47
2023-05-17T08:51:39.750Z,98302.97
2023-05-17T08:54:08.476Z,98303.84
2023-05-17T08:56:38.053Z,98304.00
2023-05-17T08:59:06.797Z,98314.63
2023-05-17T09:01:35.666Z,98305.88
2023-05-17T09:04:04.098Z,98313.13
2023-05-17T09:06:32.652Z,98320.34
2023-05-17T09:09:02.656Z,98319.50
2023-05-17T09:11:33.037Z,98321.19
2023-05-17T09:14:02.220Z,98318.69
2023-05-17T09:16:31.174Z,98324.88
2023-05-17T09:18:59.941Z,98318.69
2023-05-17T09:21:29.406Z,98328.41
2023-05-17T09:24:06.327Z,98327.56
2023-05-17T09:26:41.672Z,98332.13
2023-05-17T09:29:11.685Z,98331.31
2023-05-17T09:31:40.643Z,98322.41
2023-05-17T09:34:09.486Z,98328.59
2023-05-17T09:36:38.825Z,98334.81
2023-05-17T09:39:12.144Z,98337.50
2023-05-17T09:41:47.386Z,98342.06
2023-05-17T09:44:17.036Z,98339.38
2023-05-17T09:46:47.704Z,98341.03
2023-05-17T09:49:17.361Z,98340.19
2023-05-17T09:51:49.652Z,98343.72
2023-05-17T09:54:18.586Z,98336.69
2023-05-17T09:56:54.973Z,98349.31
2023-05-17T09:59:23.394Z,98346.63
2023-05-17T10:01:52.044Z,98353.00
2023-05-17T10:04:23.294Z,98355.53
2023-05-17T10:06:52.518Z,98356.34
2023-05-17T10:09:23.519Z,98359.03
2023-05-17T10:11:54.367Z,98368.78
2023-05-17T10:14:25.249Z,98357.19
2023-05-17T10:16:54.068Z,98357.19
2023-05-17T10:19:22.609Z,98360.91
2023-05-17T10:21:52.278Z,98353.66
2023-05-17T10:24:21.641Z,98361.94
2023-05-17T10:26:52.489Z,98362.75
2023-05-17T10:29:21.584Z,98372.69
2023-05-17T10:31:51.257Z,98373.53
2023-05-17T10:34:20.236Z,98370.84
2023-05-17T10:36:50.236Z,98376.38
2023-05-17T10:39:19.201Z,98382.81
2023-05-17T10:41:48.838Z,98384.16
2023-05-17T10:44:18.771Z,98387.34
2023-05-17T10:46:53.898Z,98403.31
2023-05-17T10:49:24.772Z,98399.63
2023-05-17T10:51:53.250Z,98390.50
2023-05-17T10:54:21.836Z,98389.69
2023-05-17T10:56:51.460Z,98399.41
2023-05-17T10:59:23.012Z,98402.75
2023-05-17T11:01:56.669Z,98412.69
2023-05-17T11:04:26.690Z,98424.28
2023-05-17T11:06:57.525Z,98411.00
2023-05-17T11:09:26.338Z,98417.41
2023-05-17T11:12:09.138Z,98422.59
2023-05-17T11:14:54.084Z,98417.22
2023-05-17T11:17:24.928Z,98417.88
2023-05-17T11:20:13.512Z,98417.72
2023-05-17T11:23:00.171Z,98418.09
2023-05-17T11:25:29.764Z,98425.13
2023-05-17T11:27:59.367Z,98423.47
2023-05-17T11:30:31.010Z,98428.06
2023-05-17T11:33:01.716Z,98413.09
2023-05-17T11:35:33.225Z,98419.16
2023-05-17T11:38:19.082Z,98424.81
2023-05-17T11:40:47.811Z,98419.66
2023-05-17T11:43:17.844Z,98425.84
2023-05-17T11:45:52.804Z,98431.25
2023-05-17T11:48:23.655Z,98425.03
2023-05-17T11:50:54.543Z,98429.84
2023-05-17T11:53:23.241Z,98434.31
2023-05-17T11:55:52.321Z,98434.31
2023-05-17T11:58:21.872Z,98430.75
2023-05-17T12:00:56.002Z,98437.00
2023-05-17T12:03:25.615Z,98432.44
2023-05-17T12:06:04.166Z,98440.50
2023-05-17T12:08:33.330Z,98444.03
2023-05-17T12:11:02.213Z,98453.97
2023-05-17T12:13:31.040Z,98459.81
2023-05-17T12:16:03.741Z,98463.66
2023-05-17T12:18:38.962Z,98464.47
2023-05-17T12:21:08.161Z,98474.53
2023-05-17T12:23:38.170Z,98473.09
2023-05-17T12:26:11.220Z,98477.00
2023-05-17T12:28:40.702Z,98480.50
2023-05-17T12:31:13.255Z,98479.84
2023-05-17T12:33:42.968Z,98484.56
2023-05-17T12:36:12.189Z,98485.44
2023-05-17T12:38:42.762Z,98485.44
2023-05-17T12:41:13.185Z,98489.13
2023-05-17T12:43:41.860Z,98482.53
2023-05-17T12:46:14.005Z,98496.66
2023-05-17T12:48:43.706Z,98497.03
2023-05-17T12:51:14.041Z,98496.81
2023-05-17T12:53:43.277Z,98495.31
2023-05-17T12:56:17.178Z,98499.03
2023-05-17T12:58:45.901Z,98507.78
2023-05-17T13:01:15.771Z,98513.63
2023-05-17T13:03:44.653Z,98508.25
2023-05-17T13:06:13.442Z,98505.41
2023-05-17T13:08:44.151Z,98511.97
2023-05-17T13:11:14.152Z,98511.31
2023-05-17T13:13:42.692Z,98516.03
2023-05-17T13:16:11.179Z,98510.66
2023-05-17T13:18:55.823Z,98515.34
2023-05-17T13:21:25.410Z,98514.09
2023-05-17T13:23:54.076Z,98511.72
2023-05-17T13:26:22.801Z,98521.09
2023-05-17T13:28:51.424Z,98516.38
2023-05-17T13:31:20.274Z,98519.75
2023-05-17T13:33:50.250Z,98525.13
2023-05-17T13:36:20.311Z,98535.88
2023-05-17T13:38:48.778Z,98542.09
2023-05-17T13:41:17.299Z,98536.72
2023-05-17T13:43:46.142Z,98534.84
2023-05-17T13:46:14.689Z,98534.84
2023-05-17T13:48:43.203Z,98542.94
2023-05-17T13:51:11.664Z,98533.00
2023-05-17T13:53:42.969Z,98544.63
2023-05-17T13:56:11.323Z,98542.09
2023-05-17T13:58:40.767Z,98537.75
2023-05-17T14:01:09.154Z,98541.28
2023-05-17T14:03:37.608Z,98541.28
2023-05-17T14:06:06.648Z,98546.66
2023-05-17T14:08:35.379Z,98543.97
2023-05-17T14:11:05.338Z,98551.38
2023-05-17T14:13:33.756Z,98553.91
2023-05-17T14:16:02.145Z,98561.97
2023-05-17T14:18:31.591Z,98560.09
2023-05-17T14:21:01.182Z,98569.50
2023-05-17T14:23:29.807Z,98571.84
2023-05-17T14:25:58.687Z,98569.16
2023-05-17T14:28:28.590Z,98565.59
2023-05-17T14:30:57.262Z,98573.19
2023-05-17T14:33:27.069Z,98578.94
2023-05-17T14:35:55.793Z,98571.03
2023-05-17T14:38:24.279Z,98589.03
2023-05-17T14:40:52.640Z,98583.97
2023-05-17T14:43:21.502Z,98580.03
2023-05-17T14:45:51.284Z,98574.53
2023-05-17T14:48:20.323Z,98589.00
2023-05-17T14:50:48.809Z,98581.94
2023-05-17T14:53:17.387Z,98583.44
2023-05-17T14:55:46.056Z,98587.81
2023-05-17T14:58:14.662Z,98588.28
2023-05-17T15:00:48.507Z,98592.84
2023-05-17T15:03:22.353Z,98588.47
2023-05-17T15:05:56.218Z,98595.34
2023-05-17T15:08:24.643Z,98586.78
2023-05-17T15:10:53.502Z,98596.19
2023-05-17T15:13:22.716Z,98604.78
2023-05-17T15:15:52.325Z,98603.94
2023-05-17T15:18:22.589Z,98607.00
2023-05-17T15:20:51.202Z,98610.53
2023-05-17T15:23:19.597Z,98610.53
2023-05-17T15:25:48.128Z,98618.59
2023-05-17T15:28:18.656Z,98621.47
2023-05-17T15:30:47.980Z,98619.28
2023-05-17T15:33:16.701Z,98627.69
2023-05-17T15:35:46.565Z,98620.47
2023-05-17T15:38:15.134Z,98628.69
2023-05-17T15:40:43.668Z,98626.31
2023-05-17T15:43:12.298Z,98628.19
2023-05-17T15:45:40.700Z,98628.84
2023-05-17T15:48:09.201Z,98619.22
2023-05-17T15:50:37.969Z,98625.97
2023-05-17T15:53:07.803Z,98626.31
2023-05-17T15:55:36.458Z,98621.28
2023-05-17T15:58:07.971Z,98631.06
2023-05-17T16:00:37.646Z,98623.97
2023-05-17T16:03:06.423Z,98628.69
2023-05-17T16:05:35.011Z,98620.28
2023-05-17T16:08:03.774Z,98637.09
2023-05-17T16:10:33.616Z,98634.59
2023-05-17T16:13:02.254Z,98633.41
2023-05-17T16:15:30.960Z,98636.41
2023-05-17T16:17:59.630Z,98638.06
2023-05-17T16:20:29.016Z,98640.75
2023-05-17T16:22:57.842Z,98640.75
2023-05-17T16:25:26.528Z,98643.31
2023-05-17T16:27:56.434Z,98636.44
2023-05-17T16:30:25.143Z,98649.56
2023-05-17T16:32:53.932Z,98648.88
2023-05-17T16:35:22.989Z,98645.16
2023-05-17T16:37:51.691Z,98640.09
2023-05-17T16:40:20.233Z,98637.25
2023-05-17T16:42:49.008Z,98641.25
2023-05-17T16:45:18.807Z,98648.69
2023-05-17T16:47:47.287Z,98649.88
2023-05-17T16:50:15.869Z,98651.38
2023-05-17T16:52:45.490Z,98648.00
2023-05-17T16:55:14.151Z,98646.50
2023-05-17T16:57:42.703Z,98651.69
2023-05-17T17:00:12.989Z,98663.66
2023-05-17T17:02:42.968Z,98664.31
2023-05-17T17:05:11.775Z,98664.16
2023-05-17T17:07:40.508Z,98664.47
2023-05-17T17:10:10.121Z,98665.97
2023-05-17T17:12:38.607Z,98675.34
2023-05-17T17:15:09.708Z,98676.22
2023-05-17T17:17:38.279Z,98686.53
2023-05-17T17:20:10.349Z,98687.72
2023-05-17T17:22:38.898Z,98682.50
2023-05-17T17:25:09.086Z,98682.69
2023-05-17T17:27:37.767Z,98677.28
2023-05-17T17:30:08.494Z,98687.88
2023-05-17T17:32:37.420Z,98694.28
2023-05-17T17:35:08.991Z,98701.16
2023-05-17T17:37:37.576Z,98704.03
2023-05-17T17:40:07.897Z,98695.47
2023-05-17T17:42:36.347Z,98713.28
2023-05-17T17:45:05.872Z,98714.50
2023-05-17T17:47:34.573Z,98723.22
2023-05-17T17:50:03.507Z,98723.41
2023-05-17T17:52:33.356Z,98726.94
2023-05-17T17:55:01.951Z,98727.94
2023-05-17T17:57:32.277Z,98727.28
2023-05-17T18:00:00.765Z,98730.97
2023-05-17T18:02:29.661Z,98730.13
2023-05-17T18:04:58.306Z,98724.75
2023-05-17T18:07:26.938Z,98720.38
2023-05-17T18:09:57.380Z,98713.16
2023-05-17T18:12:27.248Z,98718.53
2023-05-17T18:14:55.983Z,98722.25
2023-05-17T18:17:24.595Z,98717.84
2023-05-17T18:19:53.891Z,98733.66
2023-05-17T18:22:22.494Z,98731.81
2023-05-17T18:24:52.748Z,98719.00
2023-05-17T18:27:23.362Z,98726.25
2023-05-17T18:29:51.908Z,98730.66
2023-05-17T18:32:20.388Z,98720.19
2023-05-17T18:34:48.965Z,98735.69
2023-05-17T18:37:17.554Z,98729.47
2023-05-17T18:39:46.328Z,98736.69
2023-05-17T18:42:14.770Z,98739.38
2023-05-17T18:44:44.668Z,98745.59
2023-05-17T18:47:14.475Z,98747.31
2023-05-17T18:49:46.586Z,98745.28
2023-05-17T18:52:15.288Z,98755.69
2023-05-17T18:54:44.093Z,98752.78
2023-05-17T18:57:14.151Z,98751.81
2023-05-17T18:59:44.168Z,98768.31
2023-05-17T19:02:12.698Z,98758.19
2023-05-17T19:04:41.327Z,98761.06
2023-05-17T19:07:09.798Z,98754.84
2023-05-17T19:09:38.848Z,98767.28
2023-05-17T19:12:08.729Z,98766.78
2023-05-17T19:14:38.459Z,98769.63
2023-05-17T19:17:10.331Z,98768.13
2023-05-17T19:19:38.969Z,98769.28
2023-05-17T19:22:07.638Z,98768.63
2023-05-17T19:24:36.123Z,98774.19
2023-05-17T19:27:04.878Z,98768.81
2023-05-17T19:29:33.851Z,98769.81
2023-05-17T19:32:02.824Z,98761.91
2023-05-17T19:34:32.873Z,98768.31
2023-05-17T19:37:01.367Z,98772.84
2023-05-17T19:39:30.051Z,98780.91
2023-05-17T19:41:58.602Z,98774.53
2023-05-17T19:44:27.238Z,98777.38
2023-05-17T19:46:55.924Z,98772.00
2023-05-17T19:49:24.608Z,98777.22
2023-05-17T19:51:55.005Z,98775.72
2023-05-17T19:54:23.526Z,98786.50
2023-05-17T19:56:52.378Z,98791.03
2023-05-17T19:59:20.885Z,98794.56
2023-05-17T20:01:49.501Z,98792.03
2023-05-17T20:04:18.020Z,98797.06
2023-05-17T20:06:46.396Z,98806.00
2023-05-17T20:09:16.466Z,98801.13
2023-05-17T20:11:44.884Z,98800.78
2023-05-17T20:14:13.626Z,98812.03
2023-05-17T20:16:42.112Z,98810.53
2023-05-17T20:19:10.939Z,98811.53
2023-05-17T20:21:39.736Z,98822.47
2023-05-17T20:24:08.993Z,98818.78
2023-05-17T20:26:39.000Z,98825.16
2023-05-17T20:29:08.686Z,98830.53
2023-05-17T20:31:37.803Z,98827.84
2023-05-17T20:34:06.523Z,98835.09
2023-05-17T20:36:34.992Z,98827.03
2023-05-17T20:39:03.678Z,98823.34
2023-05-17T20:41:32.067Z,98819.78
2023-05-17T20:44:02.413Z,98818.09
2023-05-17T20:46:31.020Z,98820.81
2023-05-17T20:49:01.181Z,98823.50
2023-05-17T20:51:29.870Z,98824.50
2023-05-17T20:53:58.256Z,98823.50
2023-05-17T20:56:26.683Z,98829.91
2023-05-17T20:58:55.165Z,98828.88
2023-05-17T21:01:25.061Z,98838.63
2023-05-17T21:03:53.724Z,98834.25
2023-05-17T21:06:22.340Z,98837.97
2023-05-17T21:08:52.264Z,98842.34
2023-05-17T21:11:21.936Z,98843.16
2023-05-17T21:13:50.895Z,98847.72
2023-05-17T21:16:19.603Z,98839.66
2023-05-17T21:18:49.619Z,98842.34
2023-05-17T21:21:21.137Z,98847.72
2023-05-17T21:23:49.741Z,98839.66
2023-05-17T21:26:18.306Z,98840.31
2023-05-17T21:28:46.836Z,98832.41
2023-05-17T21:31:15.673Z,98839.66
2023-05-17T21:33:44.257Z,98840.47
2023-05-17T21:36:14.207Z,98838.63
2023-05-17T21:38:43.052Z,98842.34
2023-05-17T21:41:11.563Z,98845.84
2023-05-17T21:43:40.246Z,98844.00
2023-05-17T21:46:09.028Z,98845.03
2023-05-17T21:48:38.846Z,98846.88
2023-05-17T21:51:08.116Z,98847.72
2023-05-17T21:53:38.032Z,98846.69
2023-05-17T21:56:07.253Z,98845.03
2023-05-17T21:58:35.947Z,98843.16
2023-05-17T22:01:04.421Z,98846.88
2023-05-17T22:03:33.193Z,98852.25
2023-05-17T22:06:02.401Z,98849.56
2023-05-17T22:08:32.206Z,98851.44
2023-05-17T22:11:02.750Z,98844.34
2023-05-17T22:13:32.765Z,98847.72
2023-05-17T22:16:02.229Z,98852.41
2023-05-17T22:18:32.169Z,98863.88
2023-05-17T22:21:00.746Z,98866.72
2023-05-17T22:23:29.320Z,98865.03
2023-05-17T22:26:00.437Z,98862.19
2023-05-17T22:28:30.530Z,98869.41
2023-05-17T22:30:59.135Z,98860.50
2023-05-17T22:33:29.783Z,98860.50
2023-05-17T22:35:58.905Z,98865.03
2023-05-17T22:38:27.477Z,98861.53
2023-05-17T22:40:56.536Z,98870.41
2023-05-17T22:43:26.039Z,98859.66
2023-05-17T22:45:59.944Z,98854.28
2023-05-17T22:48:30.360Z,98854.44
2023-05-17T22:50:59.033Z,98857.13
2023-05-17T22:53:27.583Z,98857.13
2023-05-17T22:55:56.247Z,98866.91
2023-05-17T22:58:24.800Z,98857.13
2023-05-17T23:00:53.395Z,98857.13
2023-05-17T23:03:23.292Z,98858.00
2023-05-17T23:06:02.507Z,98849.06
2023-05-17T23:08:31.100Z,98845.53
2023-05-17T23:10:59.708Z,98848.75
2023-05-17T23:13:28.124Z,98843.50
2023-05-17T23:15:56.880Z,98847.03
2023-05-17T23:18:28.106Z,98849.06
2023-05-17T23:20:56.550Z,98849.06
2023-05-17T23:23:25.133Z,98842.69
2023-05-17T23:25:56.449Z,98842.69
2023-05-17T23:28:25.936Z,98844.53
2023-05-17T23:30:54.771Z,98844.34
2023-05-17T23:33:23.165Z,98849.72
2023-05-17T23:35:55.323Z,98850.41
2023-05-17T23:38:23.783Z,98850.41
2023-05-17T23:40:52.228Z,98853.25
2023-05-17T23:43:20.830Z,98846.03
2023-05-17T23:45:49.338Z,98852.41
2023-05-17T23:48:20.822Z,98849.72
2023-05-17T23:50:49.533Z,98845.38
2023-05-17T23:53:19.875Z,98844.53
2023-05-17T23:55:48.277Z,98841.84
2023-05-17T23:58:16.902Z,98848.06
